createdAt,value
2022-08-09T00:00:04.161Z,58.66
2022-08-09T00:02:32.213Z,58.25
2022-08-09T00:05:03.037Z,58.77
2022-08-09T00:07:46.014Z,58.58
2022-08-09T00:10:21.153Z,59.01
2022-08-09T00:12:52.651Z,58.77
2022-08-09T00:15:19.905Z,58.95
2022-08-09T00:18:05.106Z,59.29
2022-08-09T00:20:38.410Z,59.19
2022-08-09T00:23:55.408Z,59.74
2022-08-09T00:25:57.298Z,59.62
2022-08-09T00:28:27.229Z,60.76
2022-08-09T00:30:54.188Z,60.44
2022-08-09T00:33:20.753Z,60.99
2022-08-09T00:36:07.799Z,61.58
2022-08-09T00:38:35.070Z,61.52
2022-08-09T00:41:03.367Z,62.15
2022-08-09T00:44:16.909Z,61.69
2022-08-09T00:46:45.392Z,61.79
2022-08-09T00:49:08.166Z,62.44
2022-08-09T00:51:54.226Z,62.17
2022-08-09T00:54:22.738Z,62.46
2022-08-09T00:56:59.239Z,62.81
2022-08-09T00:59:41.389Z,62.72
2022-08-09T01:02:17.764Z,62.98
2022-08-09T01:04:49.140Z,63.04
2022-08-09T01:07:37.654Z,63.04
2022-08-09T01:10:18.131Z,63.20
2022-08-09T01:12:54.668Z,63.02
2022-08-09T01:15:24.447Z,62.65
2022-08-09T01:17:58.254Z,62.63
2022-08-09T01:20:34.901Z,63.21
2022-08-09T01:24:03.160Z,63.72
2022-08-09T01:26:21.933Z,64.14
2022-08-09T01:28:55.241Z,64.81
2022-08-09T01:32:30.118Z,64.89
2022-08-09T01:34:17.127Z,64.10
2022-08-09T01:36:46.550Z,64.66
2022-08-09T01:39:16.831Z,64.83
2022-08-09T01:41:55.939Z,64.81
2022-08-09T01:44:30.634Z,65.23
2022-08-09T01:46:59.877Z,65.01
2022-08-09T01:49:38.776Z,65.46
2022-08-09T01:52:10.203Z,65.19
2022-08-09T01:54:40.601Z,65.47
2022-08-09T01:57:14.826Z,65.66
2022-08-09T01:59:51.819Z,65.62
2022-08-09T02:02:22.042Z,66.60
2022-08-09T02:04:50.991Z,66.62
2022-08-09T02:08:40.511Z,66.61
2022-08-09T02:10:11.144Z,66.33
2022-08-09T02:12:39.274Z,66.53
2022-08-09T02:15:11.969Z,67.12
2022-08-09T02:18:01.595Z,67.17
2022-08-09T02:20:35.067Z,66.97
2022-08-09T02:23:07.887Z,66.90
2022-08-09T02:25:42.626Z,66.68
2022-08-09T02:28:17.783Z,66.95
2022-08-09T02:30:49.572Z,67.29
2022-08-09T02:33:22.990Z,67.94
2022-08-09T02:36:02.729Z,68.91
2022-08-09T02:38:34.922Z,69.26
2022-08-09T02:41:08.334Z,68.74
2022-08-09T02:43:54.208Z,69.15
2022-08-09T02:46:27.416Z,69.02
2022-08-09T02:48:57.995Z,68.95
2022-08-09T02:51:27.793Z,69.00
2022-08-09T02:54:02.897Z,69.08
2022-08-09T02:56:32.259Z,69.21
2022-08-09T02:59:02.202Z,69.11
2022-08-09T03:01:58.716Z,69.44
2022-08-09T03:04:19.916Z,69.84
2022-08-09T03:06:48.722Z,69.40
2022-08-09T03:09:17.365Z,69.27
2022-08-09T03:12:10.428Z,69.63
2022-08-09T03:14:32.853Z,70.22
2022-08-09T03:17:02.529Z,71.11
2022-08-09T03:19:58.503Z,71.34
2022-08-09T03:22:25.341Z,70.40
2022-08-09T03:25:25.814Z,70.86
2022-08-09T03:27:56.228Z,71.05
2022-08-09T03:30:29.291Z,72.23
2022-08-09T03:33:12.768Z,72.19
2022-08-09T03:36:11.206Z,72.24
2022-08-09T03:38:30.492Z,71.47
2022-08-09T03:40:57.375Z,71.66
2022-08-09T03:43:23.916Z,71.59
2022-08-09T03:46:03.342Z,71.37
2022-08-09T03:48:43.021Z,71.58
2022-08-09T03:51:56.441Z,71.42
2022-08-09T03:54:10.629Z,71.39
2022-08-09T03:56:38.337Z,71.76
2022-08-09T03:59:08.609Z,72.56
2022-08-09T04:01:41.896Z,72.74
2022-08-09T04:04:14.724Z,72.92
2022-08-09T04:06:48.879Z,73.50
2022-08-09T04:11:59.026Z,73.29
2022-08-09T04:14:59.143Z,72.52
2022-08-09T04:17:15.689Z,71.98
2022-08-09T04:19:51.406Z,71.77
2022-08-09T04:22:22.500Z,71.57
2022-08-09T04:24:49.079Z,71.08
2022-08-09T04:27:17.463Z,71.36
2022-08-09T04:29:49.587Z,71.46
2022-08-09T04:32:17.145Z,70.98
2022-08-09T04:35:01.236Z,71.31
2022-08-09T04:37:42.178Z,71.10
2022-08-09T04:40:28.857Z,71.56
2022-08-09T04:43:01.058Z,71.37
2022-08-09T04:45:30.457Z,71.52
2022-08-09T04:48:00.175Z,71.65
2022-08-09T04:50:35.021Z,71.49
2022-08-09T04:53:05.393Z,71.46
2022-08-09T04:55:57.478Z,71.44
2022-08-09T04:58:24.901Z,71.68
2022-08-09T05:00:52.632Z,71.19
2022-08-09T05:03:41.305Z,72.27
2022-08-09T05:06:11.487Z,71.31
2022-08-09T05:08:38.263Z,72.52
2022-08-09T05:11:06.717Z,72.51
2022-08-09T05:13:38.668Z,71.56
2022-08-09T05:16:06.786Z,70.61
2022-08-09T05:18:57.223Z,70.54
2022-08-09T05:21:24.451Z,70.34
2022-08-09T05:24:00.892Z,71.75
2022-08-09T05:26:37.211Z,71.14
2022-08-09T05:29:17.328Z,70.88
2022-08-09T05:31:46.849Z,70.96
2022-08-09T05:34:17.690Z,70.38
2022-08-09T05:36:46.826Z,69.23
2022-08-09T05:39:14.085Z,68.09
2022-08-09T05:41:55.354Z,65.29
2022-08-09T05:44:22.212Z,63.41
2022-08-09T05:46:55.817Z,61.84
2022-08-09T05:50:23.547Z,59.67
2022-08-09T05:52:10.528Z,59.88
2022-08-09T05:54:37.119Z,60.07
2022-08-09T05:57:06.294Z,59.26
2022-08-09T05:59:33.222Z,59.84
2022-08-09T06:02:00.151Z,60.62
2022-08-09T06:04:34.576Z,59.10
2022-08-09T06:07:01.794Z,58.86
2022-08-09T06:09:53.852Z,59.30
2022-08-09T06:12:16.442Z,57.59
2022-08-09T06:14:43.749Z,58.90
2022-08-09T06:17:10.407Z,57.74
2022-08-09T06:19:37.515Z,57.22
2022-08-09T06:22:04.923Z,55.82
2022-08-09T06:24:32.859Z,56.12
2022-08-09T06:27:01.895Z,55.51
2022-08-09T06:29:28.473Z,54.56
2022-08-09T06:32:24.635Z,53.82
2022-08-09T06:34:41.683Z,53.65
2022-08-09T06:37:09.934Z,53.84
2022-08-09T06:39:48.248Z,52.36
2022-08-09T06:42:30.567Z,50.17
2022-08-09T06:45:00.204Z,52.46
2022-08-09T06:47:39.907Z,51.80
2022-08-09T06:50:14.314Z,50.79
2022-08-09T06:52:45.597Z,50.32
2022-08-09T06:55:16.745Z,46.32
2022-08-09T06:58:03.264Z,45.14
2022-08-09T07:00:54.214Z,43.96
2022-08-09T07:03:16.600Z,42.34
2022-08-09T07:06:02.295Z,41.69
2022-08-09T07:08:30.633Z,39.74
2022-08-09T07:10:58.683Z,39.04
2022-08-09T07:13:29.438Z,39.32
2022-08-09T07:16:41.037Z,38.84
2022-08-09T07:18:43.592Z,39.33
2022-08-09T07:21:10.351Z,40.48
2022-08-09T07:23:46.778Z,39.91
2022-08-09T07:26:25.802Z,40.83
2022-08-09T07:29:08.781Z,38.92
2022-08-09T07:31:45.415Z,36.32
2022-08-09T07:34:20.160Z,36.60
2022-08-09T07:36:48.000Z,36.24
2022-08-09T07:39:20.168Z,35.67
2022-08-09T07:42:03.539Z,36.00
2022-08-09T07:44:50.900Z,35.75
2022-08-09T07:47:19.155Z,36.11
2022-08-09T07:50:04.345Z,35.95
2022-08-09T07:52:32.879Z,35.12
2022-08-09T07:54:59.542Z,34.51
2022-08-09T07:57:35.938Z,33.76
2022-08-09T08:00:04.374Z,33.14
2022-08-09T08:02:35.911Z,33.10
2022-08-09T08:05:17.796Z,32.91
2022-08-09T08:09:02.323Z,33.21
2022-08-09T08:10:34.313Z,33.18
2022-08-09T08:13:03.710Z,33.03
2022-08-09T08:15:35.610Z,32.89
2022-08-09T08:18:04.737Z,32.53
2022-08-09T08:20:33.185Z,33.03
2022-08-09T08:23:06.355Z,31.53
2022-08-09T08:25:46.625Z,32.39
2022-08-09T08:28:31.854Z,32.59
2022-08-09T08:31:02.452Z,32.49
2022-08-09T08:33:49.642Z,32.05
2022-08-09T08:36:28.288Z,32.29
2022-08-09T08:38:56.302Z,32.16
2022-08-09T08:41:24.066Z,30.67
2022-08-09T08:43:52.863Z,31.46
2022-08-09T08:46:33.365Z,31.71
2022-08-09T08:49:02.052Z,31.82
2022-08-09T08:51:40.281Z,31.45
2022-08-09T08:54:10.196Z,31.01
2022-08-09T08:56:46.840Z,30.94
2022-08-09T08:59:19.491Z,30.93
2022-08-09T09:01:52.789Z,30.88
2022-08-09T09:04:26.804Z,31.43
2022-08-09T09:06:57.201Z,31.24
2022-08-09T09:09:58.355Z,31.58
2022-08-09T09:12:16.764Z,30.84
2022-08-09T09:14:49.186Z,31.57
2022-08-09T09:17:16.773Z,31.80
2022-08-09T09:19:44.323Z,31.82
2022-08-09T09:22:12.848Z,30.79
2022-08-09T09:24:44.908Z,30.36
2022-08-09T09:28:04.525Z,30.73
2022-08-09T09:30:23.808Z,29.68
2022-08-09T09:33:15.365Z,30.61
2022-08-09T09:36:00.926Z,30.05
2022-08-09T09:38:40.585Z,29.91
2022-08-09T09:41:07.310Z,30.67
2022-08-09T09:43:41.757Z,29.95
2022-08-09T09:46:46.047Z,31.05
2022-08-09T09:49:32.175Z,29.60
2022-08-09T09:52:33.689Z,29.63
2022-08-09T09:55:01.546Z,28.15
2022-08-09T09:58:01.363Z,29.11
2022-08-09T10:00:23.095Z,28.96
2022-08-09T10:02:54.808Z,30.22
2022-08-09T10:05:26.976Z,30.98
2022-08-09T10:08:27.180Z,30.29
2022-08-09T10:10:54.734Z,31.03
2022-08-09T10:13:42.840Z,31.16
2022-08-09T10:16:57.310Z,31.20
2022-08-09T10:18:59.963Z,31.14
2022-08-09T10:21:27.301Z,31.52
2022-08-09T10:23:55.517Z,31.25
2022-08-09T10:26:24.679Z,31.25
2022-08-09T10:29:32.749Z,31.45
2022-08-09T10:32:27.921Z,31.97
2022-08-09T10:34:32.716Z,32.34
2022-08-09T10:37:01.098Z,31.48
2022-08-09T10:39:28.928Z,31.66
2022-08-09T10:41:55.695Z,31.42
2022-08-09T10:44:25.207Z,30.97
2022-08-09T10:48:12.783Z,30.76
2022-08-09T10:50:26.956Z,30.72
2022-08-09T10:53:10.357Z,30.67
2022-08-09T10:55:58.602Z,30.43
2022-08-09T10:58:32.357Z,30.15
2022-08-09T11:03:01.742Z,30.23
2022-08-09T11:04:28.448Z,30.48
2022-08-09T11:07:27.561Z,31.02
2022-08-09T11:10:14.244Z,30.13
2022-08-09T11:12:42.188Z,29.64
2022-08-09T11:15:34.200Z,28.82
2022-08-09T11:18:41.939Z,29.32
2022-08-09T11:21:44.218Z,30.03
2022-08-09T11:24:25.584Z,30.88
2022-08-09T11:26:56.213Z,30.38
2022-08-09T11:30:04.997Z,29.41
2022-08-09T11:32:44.766Z,30.17
2022-08-09T11:35:15.740Z,30.45
2022-08-09T11:37:44.165Z,30.35
2022-08-09T11:40:27.795Z,30.08
2022-08-09T11:42:58.509Z,29.78
2022-08-09T11:45:37.714Z,31.49
2022-08-09T11:48:26.330Z,31.20
2022-08-09T11:51:19.752Z,30.48
2022-08-09T11:54:13.500Z,31.13
2022-08-09T11:56:48.116Z,30.19
2022-08-09T11:59:30.670Z,30.87
2022-08-09T12:02:34.483Z,30.66
2022-08-09T12:04:50.692Z,31.13
2022-08-09T12:07:27.851Z,31.88
2022-08-09T12:09:59.190Z,31.32
2022-08-09T12:12:44.254Z,31.50
2022-08-09T12:15:22.285Z,31.05
2022-08-09T12:18:15.785Z,31.14
2022-08-09T12:20:42.422Z,31.41
2022-08-09T12:23:09.883Z,31.02
2022-08-09T12:25:38.440Z,30.78
2022-08-09T12:29:15.031Z,30.64
2022-08-09T12:31:58.292Z,30.90
2022-08-09T12:34:04.989Z,30.11
2022-08-09T12:36:34.120Z,30.32
2022-08-09T12:39:04.286Z,31.92
2022-08-09T12:41:39.056Z,32.54
2022-08-09T12:44:10.355Z,30.27
2022-08-09T12:46:40.255Z,31.76
2022-08-09T12:49:07.959Z,31.00
2022-08-09T12:52:00.218Z,31.00
2022-08-09T12:54:21.547Z,29.92
2022-08-09T12:56:51.197Z,30.76
2022-08-09T12:59:23.644Z,30.66
2022-08-09T13:02:01.740Z,30.65
2022-08-09T13:04:36.184Z,31.67
2022-08-09T13:07:11.279Z,30.58
2022-08-09T13:09:40.908Z,30.70
2022-08-09T13:12:10.340Z,30.68
2022-08-09T13:14:44.140Z,29.28
2022-08-09T13:17:44.323Z,29.28
2022-08-09T13:20:10.038Z,29.43
2022-08-09T13:23:06.125Z,29.19
2022-08-09T13:25:42.023Z,29.44
2022-08-09T13:28:18.819Z,28.42
2022-08-09T13:32:12.648Z,29.22
2022-08-09T13:33:55.188Z,29.63
2022-08-09T13:36:37.585Z,30.15
2022-08-09T13:41:46.432Z,29.61
2022-08-09T13:42:01.627Z,29.75
2022-08-09T13:44:28.894Z,29.13
2022-08-09T13:47:26.818Z,29.36
2022-08-09T13:49:57.220Z,29.07
2022-08-09T13:52:25.280Z,30.26
2022-08-09T13:54:59.673Z,30.15
2022-08-09T13:57:36.424Z,29.73
2022-08-09T14:00:07.651Z,30.21
2022-08-09T14:02:42.018Z,29.08
2022-08-09T14:05:10.184Z,30.68
2022-08-09T14:07:41.029Z,29.11
2022-08-09T14:10:17.427Z,30.07
2022-08-09T14:12:57.500Z,29.38
2022-08-09T14:16:09.995Z,28.75
2022-08-09T14:18:19.719Z,28.40
2022-08-09T14:20:56.627Z,28.56
2022-08-09T14:23:54.189Z,28.56
2022-08-09T14:26:10.153Z,29.24
2022-08-09T14:28:37.715Z,29.21
2022-08-09T14:31:04.361Z,29.90
2022-08-09T14:33:38.092Z,30.02
2022-08-09T14:36:19.482Z,30.72
2022-08-09T14:38:46.387Z,30.10
2022-08-09T14:41:40.333Z,28.95
2022-08-09T14:44:06.365Z,29.98
2022-08-09T14:46:55.116Z,29.83
2022-08-09T14:49:23.574Z,29.45
2022-08-09T14:51:50.330Z,30.23
2022-08-09T14:54:16.938Z,29.09
2022-08-09T14:56:58.067Z,29.88
2022-08-09T14:59:27.058Z,30.21
2022-08-09T15:01:54.140Z,30.23
2022-08-09T15:04:23.321Z,30.00
2022-08-09T15:06:50.663Z,30.20
2022-08-09T15:10:03.314Z,29.71
2022-08-09T15:12:08.212Z,29.98
2022-08-09T15:14:38.467Z,30.53
2022-08-09T15:17:05.765Z,30.22
2022-08-09T15:19:36.284Z,30.38
2022-08-09T15:22:03.393Z,31.03
2022-08-09T15:24:30.094Z,31.10
2022-08-09T15:26:57.613Z,30.37
2022-08-09T15:30:57.251Z,31.01
2022-08-09T15:32:29.320Z,30.24
2022-08-09T15:34:59.289Z,31.10
2022-08-09T15:37:38.098Z,31.07
2022-08-09T15:40:14.845Z,31.80
2022-08-09T15:42:43.257Z,31.67
2022-08-09T15:45:12.533Z,31.88
2022-08-09T15:47:52.336Z,31.48
2022-08-09T15:50:28.810Z,30.51
2022-08-09T15:53:05.967Z,30.95
2022-08-09T15:55:35.215Z,30.47
2022-08-09T15:58:26.827Z,30.29
2022-08-09T16:00:54.029Z,30.60
2022-08-09T16:03:29.417Z,31.01
2022-08-09T16:06:07.051Z,31.13
2022-08-09T16:08:53.607Z,31.78
2022-08-09T16:11:20.183Z,31.38
2022-08-09T16:14:06.248Z,31.84
2022-08-09T16:16:33.381Z,31.67
2022-08-09T16:19:01.312Z,32.31
2022-08-09T16:21:31.606Z,32.09
2022-08-09T16:24:02.773Z,31.18
2022-08-09T16:26:35.297Z,31.90
2022-08-09T16:29:05.929Z,31.90
2022-08-09T16:32:19.712Z,31.81
2022-08-09T16:34:26.195Z,32.32
2022-08-09T16:36:54.120Z,32.85
2022-08-09T16:39:20.851Z,32.26
2022-08-09T16:42:02.873Z,32.11
2022-08-09T16:44:31.976Z,32.93
2022-08-09T16:47:03.925Z,32.69
2022-08-09T16:50:32.232Z,33.50
2022-08-09T16:52:33.694Z,31.96
2022-08-09T16:55:00.401Z,31.82
2022-08-09T16:57:26.978Z,32.13
2022-08-09T17:00:14.745Z,31.85
2022-08-09T17:02:41.713Z,32.09
2022-08-09T17:05:10.352Z,31.73
2022-08-09T17:08:46.139Z,32.59
2022-08-09T17:10:28.023Z,32.10
2022-08-09T17:12:56.771Z,31.71
2022-08-09T17:15:58.508Z,31.59
2022-08-09T17:18:10.711Z,31.81
2022-08-09T17:20:43.483Z,32.11
2022-08-09T17:23:14.991Z,31.80
2022-08-09T17:25:41.799Z,31.60
2022-08-09T17:28:08.526Z,31.62
2022-08-09T17:30:36.764Z,31.78
2022-08-09T17:33:05.285Z,32.41
2022-08-09T17:35:41.001Z,32.34
2022-08-09T17:38:12.948Z,35.68
2022-08-09T17:40:46.319Z,36.11
2022-08-09T17:43:34.250Z,33.81
2022-08-09T17:46:02.868Z,33.06
2022-08-09T17:48:33.967Z,32.87
2022-08-09T17:51:09.760Z,32.70
2022-08-09T17:53:51.489Z,32.73
2022-08-09T17:56:27.320Z,33.35
2022-08-09T17:58:54.807Z,33.48
2022-08-09T18:01:22.420Z,33.74
2022-08-09T18:03:50.249Z,34.28
2022-08-09T18:06:31.432Z,34.40
2022-08-09T18:09:00.776Z,37.28
2022-08-09T18:11:28.930Z,35.10
2022-08-09T18:13:58.806Z,37.58
2022-08-09T18:16:30.691Z,36.90
2022-08-09T18:18:59.532Z,37.50
2022-08-09T18:21:31.565Z,39.18
2022-08-09T18:24:12.845Z,37.26
2022-08-09T18:26:46.881Z,39.00
2022-08-09T18:30:39.648Z,38.09
2022-08-09T18:32:02.815Z,37.86
2022-08-09T18:34:29.846Z,39.46
2022-08-09T18:36:56.415Z,39.57
2022-08-09T18:39:23.004Z,41.33
2022-08-09T18:41:53.151Z,41.04
2022-08-09T18:44:20.374Z,41.11
2022-08-09T18:47:03.553Z,41.38
2022-08-09T18:49:41.624Z,41.93
2022-08-09T18:52:13.563Z,42.40
2022-08-09T18:54:49.773Z,42.27
2022-08-09T18:57:22.222Z,42.92
2022-08-09T18:59:57.628Z,42.82
2022-08-09T19:02:31.747Z,43.57
2022-08-09T19:05:04.489Z,43.98
2022-08-09T19:07:59.296Z,44.77
2022-08-09T19:10:36.995Z,44.72
2022-08-09T19:13:22.694Z,44.65
2022-08-09T19:15:50.980Z,45.40
2022-08-09T19:18:35.822Z,45.48
2022-08-09T19:21:05.407Z,46.23
2022-08-09T19:24:33.555Z,46.64
2022-08-09T19:26:31.128Z,46.44
2022-08-09T19:29:01.509Z,47.11
2022-08-09T19:31:28.750Z,47.04
2022-08-09T19:33:57.899Z,47.21
2022-08-09T19:36:30.953Z,48.44
2022-08-09T19:38:59.469Z,48.08
2022-08-09T19:41:35.481Z,48.09
2022-08-09T19:44:04.409Z,48.39
2022-08-09T19:46:35.034Z,48.29
2022-08-09T19:50:07.437Z,48.94
2022-08-09T19:52:03.952Z,49.38
2022-08-09T19:54:30.817Z,49.60
2022-08-09T19:56:57.843Z,50.08
2022-08-09T19:59:58.343Z,50.08
2022-08-09T20:02:17.102Z,49.88
2022-08-09T20:04:59.919Z,50.32
2022-08-09T20:07:56.836Z,50.51
2022-08-09T20:10:17.581Z,51.25
2022-08-09T20:12:49.027Z,51.66
2022-08-09T20:16:34.684Z,51.87
2022-08-09T20:18:04.263Z,51.55
2022-08-09T20:20:35.061Z,52.01
2022-08-09T20:23:04.343Z,52.48
2022-08-09T20:25:38.248Z,52.76
2022-08-09T20:28:27.986Z,52.79
2022-08-09T20:31:04.823Z,53.08
2022-08-09T20:33:41.307Z,52.82
2022-08-09T20:36:11.358Z,53.05
2022-08-09T20:39:00.276Z,53.66
2022-08-09T20:41:32.121Z,53.81
2022-08-09T20:44:02.220Z,53.66
2022-08-09T20:46:42.260Z,53.89
2022-08-09T20:49:11.484Z,53.94
2022-08-09T20:51:41.594Z,53.73
2022-08-09T20:54:12.435Z,53.87
2022-08-09T20:56:41.135Z,54.55
2022-08-09T20:59:07.881Z,53.94
2022-08-09T21:01:50.379Z,54.30
2022-08-09T21:05:52.520Z,54.84
2022-08-09T21:07:11.450Z,55.16
2022-08-09T21:09:46.127Z,55.45
2022-08-09T21:15:13.063Z,55.47
2022-08-09T21:18:22.111Z,56.05
2022-08-09T21:20:30.397Z,56.38
2022-08-09T21:22:57.829Z,56.94
2022-08-09T21:25:25.390Z,56.60
2022-08-09T21:27:53.219Z,56.84
2022-08-09T21:30:22.290Z,56.44
2022-08-09T21:32:50.898Z,56.53
2022-08-09T21:35:18.067Z,56.12
2022-08-09T21:37:58.776Z,56.68
2022-08-09T21:40:30.695Z,56.74
2022-08-09T21:42:59.732Z,57.05
2022-08-09T21:45:28.007Z,57.43
2022-08-09T21:47:55.949Z,57.69
2022-08-09T21:50:35.761Z,57.64
2022-08-09T21:53:23.856Z,57.49
2022-08-09T21:55:53.622Z,57.48
2022-08-09T21:58:20.168Z,58.29
2022-08-09T22:00:48.738Z,58.26
2022-08-09T22:03:25.518Z,58.58
2022-08-09T22:05:53.118Z,58.96
2022-08-09T22:08:24.425Z,59.04
2022-08-09T22:11:00.526Z,59.08
2022-08-09T22:13:43.469Z,59.38
2022-08-09T22:16:10.900Z,59.09
2022-08-09T22:18:53.683Z,59.45
2022-08-09T22:21:24.258Z,59.83
2022-08-09T22:23:59.563Z,60.30
2022-08-09T22:26:35.622Z,60.73
2022-08-09T22:29:07.473Z,60.23
2022-08-09T22:31:36.193Z,59.59
2022-08-09T22:34:14.503Z,60.18
2022-08-09T22:36:45.832Z,60.61
2022-08-09T22:39:20.710Z,60.69
2022-08-09T22:41:59.845Z,60.83
2022-08-09T22:44:29.861Z,60.79
2022-08-09T22:48:11.729Z,60.91
2022-08-09T22:49:47.751Z,61.27
2022-08-09T22:52:19.658Z,61.54
2022-08-09T22:54:47.361Z,61.47
2022-08-09T22:57:14.399Z,61.73
2022-08-09T22:59:58.189Z,61.77
2022-08-09T23:02:25.764Z,62.13
2022-08-09T23:04:56.950Z,62.03
2022-08-09T23:08:21.408Z,62.42
2022-08-09T23:10:10.960Z,61.86
2022-08-09T23:12:37.898Z,62.20
2022-08-09T23:15:05.221Z,62.03
2022-08-09T23:17:32.017Z,61.98
2022-08-09T23:20:01.091Z,61.89
2022-08-09T23:22:34.234Z,62.55
2022-08-09T23:25:02.359Z,63.15
2022-08-09T23:27:28.932Z,63.70
2022-08-09T23:29:55.552Z,64.00
2022-08-09T23:32:22.154Z,64.18
2022-08-09T23:34:48.809Z,64.10
2022-08-09T23:37:17.707Z,64.58
2022-08-09T23:39:48.303Z,65.05
2022-08-09T23:42:15.107Z,65.75
2022-08-09T23:44:41.806Z,65.76
2022-08-09T23:47:08.403Z,65.94
2022-08-09T23:49:35.101Z,66.24
2022-08-09T23:52:01.668Z,66.63
2022-08-09T23:54:29.573Z,66.39
2022-08-09T23:56:58.358Z,65.79
2022-08-09T23:59:25.335Z,66.17
